createdAt,value
2022-08-17T00:00:42.715Z,21.06
2022-08-17T00:03:10.515Z,21.06
2022-08-17T00:05:36.812Z,21.06
2022-08-17T00:08:03.075Z,21.05
2022-08-17T00:10:29.377Z,21.02
2022-08-17T00:12:58.647Z,20.99
2022-08-17T00:15:24.866Z,20.96
2022-08-17T00:17:51.130Z,20.94
2022-08-17T00:20:17.538Z,20.92
2022-08-17T00:22:46.274Z,20.90
2022-08-17T00:25:12.503Z,20.91
2022-08-17T00:27:38.772Z,20.88
2022-08-17T00:30:04.987Z,20.88
2022-08-17T00:33:15.778Z,20.86
2022-08-17T00:35:17.547Z,20.87
2022-08-17T00:37:43.775Z,20.86
2022-08-17T00:40:10.087Z,20.86
2022-08-17T00:42:36.438Z,20.81
2022-08-17T00:45:02.662Z,20.79
2022-08-17T00:47:28.907Z,20.72
2022-08-17T00:49:55.257Z,20.69
2022-08-17T00:52:21.545Z,20.66
2022-08-17T00:54:47.812Z,20.60
2022-08-17T00:57:14.102Z,20.53
2022-08-17T00:59:40.346Z,20.45
2022-08-17T01:02:06.602Z,20.37
2022-08-17T01:04:32.835Z,20.30
2022-08-17T01:06:59.063Z,20.26
2022-08-17T01:09:25.308Z,20.22
2022-08-17T01:11:51.578Z,20.18
2022-08-17T01:14:17.916Z,20.16
2022-08-17T01:16:44.180Z,20.14
2022-08-17T01:19:10.497Z,20.12
2022-08-17T01:21:36.751Z,20.12
2022-08-17T01:24:02.955Z,20.11
2022-08-17T01:26:29.255Z,20.10
2022-08-17T01:28:56.003Z,20.12
2022-08-17T01:31:22.305Z,20.14
2022-08-17T01:33:48.574Z,20.15
2022-08-17T01:36:14.881Z,20.15
2022-08-17T01:38:41.159Z,20.13
2022-08-17T01:41:07.389Z,20.13
2022-08-17T01:43:33.640Z,20.12
2022-08-17T01:46:03.138Z,20.07
2022-08-17T01:48:30.221Z,20.02
2022-08-17T01:50:56.452Z,20.00
2022-08-17T01:53:22.713Z,19.98
2022-08-17T01:55:48.953Z,19.99
2022-08-17T01:58:15.203Z,19.97
2022-08-17T02:00:59.714Z,19.98
2022-08-17T02:03:27.653Z,20.00
2022-08-17T02:05:53.908Z,19.99
2022-08-17T02:08:20.420Z,19.96
2022-08-17T02:10:58.798Z,19.94
2022-08-17T02:13:27.281Z,19.93
2022-08-17T02:15:53.534Z,19.90
2022-08-17T02:18:19.784Z,19.86
2022-08-17T02:20:46.123Z,19.82
2022-08-17T02:23:12.374Z,19.80
2022-08-17T02:25:38.594Z,19.77
2022-08-17T02:28:04.859Z,19.74
2022-08-17T02:31:00.938Z,19.73
2022-08-17T02:33:17.399Z,19.74
2022-08-17T02:35:46.558Z,19.74
2022-08-17T02:38:12.802Z,19.72
2022-08-17T02:40:39.058Z,19.70
2022-08-17T02:43:05.325Z,19.69
2022-08-17T02:45:31.647Z,19.69
2022-08-17T02:47:57.917Z,19.68
2022-08-17T02:50:24.131Z,19.66
2022-08-17T02:53:01.828Z,19.63
2022-08-17T02:55:28.867Z,19.56
2022-08-17T02:57:55.113Z,19.50
2022-08-17T03:00:21.347Z,19.46
2022-08-17T03:02:47.591Z,19.42
2022-08-17T03:05:13.818Z,19.38
2022-08-17T03:07:40.055Z,19.34
2022-08-17T03:10:06.297Z,19.33
2022-08-17T03:12:32.557Z,19.31
2022-08-17T03:14:58.780Z,19.30
2022-08-17T03:17:25.134Z,19.30
2022-08-17T03:19:51.441Z,19.30
2022-08-17T03:22:36.187Z,19.31
2022-08-17T03:25:03.996Z,19.31
2022-08-17T03:27:36.775Z,19.31
2022-08-17T03:30:05.734Z,19.30
2022-08-17T03:32:31.968Z,19.30
2022-08-17T03:34:58.208Z,19.30
2022-08-17T03:37:24.511Z,19.29
2022-08-17T03:39:50.801Z,19.28
2022-08-17T03:42:32.331Z,19.29
2022-08-17T03:44:59.101Z,19.26
2022-08-17T03:47:25.505Z,19.21
2022-08-17T03:49:51.726Z,19.21
2022-08-17T03:52:17.987Z,19.16
2022-08-17T03:54:44.218Z,19.12
2022-08-17T03:57:10.486Z,19.12
2022-08-17T03:59:36.725Z,19.13
2022-08-17T04:02:02.967Z,19.13
2022-08-17T04:04:29.195Z,19.15
2022-08-17T04:06:55.429Z,19.14
2022-08-17T04:09:21.640Z,19.15
2022-08-17T04:11:47.955Z,19.16
2022-08-17T04:14:14.314Z,19.18
2022-08-17T04:16:40.566Z,19.15
2022-08-17T04:19:06.787Z,19.14
2022-08-17T04:21:33.232Z,19.16
2022-08-17T04:23:59.461Z,19.20
2022-08-17T04:26:52.526Z,19.23
2022-08-17T04:29:12.060Z,19.26
2022-08-17T04:31:38.312Z,19.31
2022-08-17T04:34:04.549Z,19.33
2022-08-17T04:36:30.925Z,19.34
2022-08-17T04:38:58.329Z,19.34
2022-08-17T04:41:24.648Z,19.35
2022-08-17T04:43:50.895Z,19.36
2022-08-17T04:46:17.183Z,19.39
2022-08-17T04:48:43.552Z,19.41
2022-08-17T04:51:10.283Z,19.42
2022-08-17T04:53:36.715Z,19.44
2022-08-17T04:56:03.031Z,19.46
2022-08-17T04:58:29.274Z,19.49
2022-08-17T05:00:55.591Z,19.52
2022-08-17T05:03:21.835Z,19.55
2022-08-17T05:05:48.100Z,19.58
2022-08-17T05:08:14.714Z,19.62
2022-08-17T05:10:45.534Z,19.65
2022-08-17T05:13:12.071Z,19.70
2022-08-17T05:15:38.326Z,19.74
2022-08-17T05:18:11.246Z,19.78
2022-08-17T05:20:37.700Z,19.82
2022-08-17T05:23:03.951Z,19.85
2022-08-17T05:25:30.517Z,19.90
2022-08-17T05:28:00.683Z,19.94
2022-08-17T05:30:28.469Z,20.00
2022-08-17T05:32:55.249Z,20.03
2022-08-17T05:35:21.692Z,20.10
2022-08-17T05:37:48.119Z,20.19
2022-08-17T05:40:14.436Z,20.27
2022-08-17T05:42:41.036Z,20.37
2022-08-17T05:45:07.346Z,20.45
2022-08-17T05:47:33.814Z,20.52
2022-08-17T05:50:00.332Z,20.56
2022-08-17T05:52:28.622Z,20.61
2022-08-17T05:54:55.052Z,20.65
2022-08-17T05:57:22.218Z,20.71
2022-08-17T05:59:49.265Z,20.75
2022-08-17T06:02:15.594Z,20.81
2022-08-17T06:04:41.931Z,20.88
2022-08-17T06:07:08.292Z,20.94
2022-08-17T06:09:34.574Z,21.01
2022-08-17T06:12:00.936Z,21.07
2022-08-17T06:14:28.763Z,21.12
2022-08-17T06:16:55.114Z,21.21
2022-08-17T06:19:21.417Z,21.28
2022-08-17T06:21:47.881Z,21.35
2022-08-17T06:24:14.221Z,21.42
2022-08-17T06:26:43.282Z,21.50
2022-08-17T06:29:09.794Z,21.55
2022-08-17T06:31:45.273Z,21.59
2022-08-17T06:34:11.480Z,21.63
2022-08-17T06:36:37.731Z,21.67
2022-08-17T06:39:03.979Z,21.70
2022-08-17T06:41:30.248Z,21.77
2022-08-17T06:43:56.531Z,21.86
2022-08-17T06:46:22.818Z,21.93
2022-08-17T06:48:49.044Z,22.03
2022-08-17T06:51:15.368Z,22.12
2022-08-17T06:53:41.671Z,22.22
2022-08-17T06:56:07.951Z,22.31
2022-08-17T06:58:34.172Z,22.44
2022-08-17T07:01:00.450Z,22.57
2022-08-17T07:03:26.713Z,22.67
2022-08-17T07:05:52.966Z,22.75
2022-08-17T07:08:20.654Z,22.82
2022-08-17T07:10:46.908Z,22.90
2022-08-17T07:13:13.131Z,22.95
2022-08-17T07:15:39.651Z,23.05
2022-08-17T07:18:05.872Z,23.13
2022-08-17T07:20:32.384Z,23.29
2022-08-17T07:23:00.433Z,23.39
2022-08-17T07:25:26.968Z,23.51
2022-08-17T07:27:53.196Z,23.63
2022-08-17T07:30:19.648Z,23.77
2022-08-17T07:32:46.069Z,23.88
2022-08-17T07:35:12.524Z,24.01
2022-08-17T07:37:41.749Z,24.16
2022-08-17T07:40:15.442Z,24.27
2022-08-17T07:42:46.720Z,24.42
2022-08-17T07:45:13.321Z,24.54
2022-08-17T07:47:39.567Z,24.59
2022-08-17T07:50:05.854Z,24.64
2022-08-17T07:52:51.185Z,24.71
2022-08-17T07:55:18.286Z,24.74
2022-08-17T07:57:44.615Z,24.80
2022-08-17T08:00:16.411Z,24.85
2022-08-17T08:02:42.849Z,24.93
2022-08-17T08:05:09.142Z,25.02
2022-08-17T08:07:36.413Z,25.07
2022-08-17T08:10:02.731Z,25.16
2022-08-17T08:12:33.673Z,25.27
2022-08-17T08:15:00.201Z,25.31
2022-08-17T08:17:26.463Z,25.35
2022-08-17T08:19:52.751Z,25.39
2022-08-17T08:22:19.101Z,25.46
2022-08-17T08:24:45.439Z,25.53
2022-08-17T08:27:11.657Z,25.58
2022-08-17T08:29:37.921Z,25.62
2022-08-17T08:32:04.158Z,25.67
2022-08-17T08:34:58.708Z,25.71
2022-08-17T08:37:24.970Z,25.79
2022-08-17T08:39:53.995Z,25.97
2022-08-17T08:42:20.474Z,26.08
2022-08-17T08:45:01.278Z,26.29
2022-08-17T08:47:31.489Z,26.36
2022-08-17T08:50:04.402Z,26.42
2022-08-17T08:52:31.201Z,26.48
2022-08-17T08:54:57.519Z,26.53
2022-08-17T08:57:28.017Z,26.59
2022-08-17T08:59:58.399Z,26.63
2022-08-17T09:02:24.804Z,26.69
2022-08-17T09:05:13.440Z,26.73
2022-08-17T09:07:37.427Z,26.78
2022-08-17T09:10:03.732Z,26.85
2022-08-17T09:12:30.025Z,26.88
2022-08-17T09:14:56.305Z,26.96
2022-08-17T09:17:22.543Z,27.00
2022-08-17T09:19:48.792Z,27.02
2022-08-17T09:22:15.021Z,27.11
2022-08-17T09:24:41.274Z,27.16
2022-08-17T09:27:07.557Z,27.18
2022-08-17T09:29:33.804Z,27.23
2022-08-17T09:32:00.129Z,27.30
2022-08-17T09:34:29.601Z,27.39
2022-08-17T09:36:59.555Z,27.46
2022-08-17T09:39:26.256Z,27.51
2022-08-17T09:41:52.732Z,27.55
2022-08-17T09:44:23.079Z,27.62
2022-08-17T09:46:50.075Z,27.67
2022-08-17T09:49:16.382Z,27.74
2022-08-17T09:51:42.651Z,27.82
2022-08-17T09:54:37.097Z,27.94
2022-08-17T09:57:18.166Z,28.02
2022-08-17T09:59:41.876Z,28.16
2022-08-17T10:02:08.219Z,28.18
2022-08-17T10:04:39.492Z,28.29
2022-08-17T10:07:05.762Z,28.40
2022-08-17T10:09:32.021Z,28.50
2022-08-17T10:11:58.861Z,28.69
2022-08-17T10:14:37.640Z,28.81
2022-08-17T10:17:10.085Z,28.90
2022-08-17T10:19:36.394Z,28.92
2022-08-17T10:22:32.791Z,29.00
2022-08-17T10:25:01.950Z,29.11
2022-08-17T10:27:35.144Z,29.09
2022-08-17T10:30:01.488Z,29.04
2022-08-17T10:32:28.433Z,28.97
2022-08-17T10:34:54.851Z,28.91
2022-08-17T10:37:21.193Z,28.93
2022-08-17T10:39:52.139Z,29.00
2022-08-17T10:42:30.406Z,29.05
2022-08-17T10:44:59.228Z,29.13
2022-08-17T10:47:25.674Z,29.20
2022-08-17T10:49:51.960Z,29.22
2022-08-17T10:52:18.254Z,29.22
2022-08-17T10:54:44.475Z,29.24
2022-08-17T10:57:10.959Z,29.24
2022-08-17T10:59:37.185Z,29.27
2022-08-17T11:02:03.435Z,29.32
2022-08-17T11:04:29.839Z,29.39
2022-08-17T11:06:56.188Z,29.45
2022-08-17T11:09:22.443Z,29.54
2022-08-17T11:11:48.706Z,29.61
2022-08-17T11:14:14.969Z,29.64
2022-08-17T11:16:41.200Z,29.56
2022-08-17T11:19:07.443Z,29.53
2022-08-17T11:21:33.669Z,29.51
2022-08-17T11:23:59.902Z,29.54
2022-08-17T11:26:26.207Z,29.57
2022-08-17T11:28:53.040Z,29.64
2022-08-17T11:31:19.448Z,29.78
2022-08-17T11:34:04.317Z,29.88
2022-08-17T11:36:30.549Z,29.99
2022-08-17T11:38:56.810Z,30.12
2022-08-17T11:41:23.604Z,30.22
2022-08-17T11:43:49.890Z,30.26
2022-08-17T11:46:16.252Z,30.34
2022-08-17T11:48:42.475Z,30.37
2022-08-17T11:51:08.693Z,30.47
2022-08-17T11:53:35.012Z,30.54
2022-08-17T11:56:01.320Z,30.63
2022-08-17T11:58:27.561Z,30.73
2022-08-17T12:00:53.784Z,30.82
2022-08-17T12:03:20.054Z,30.98
2022-08-17T12:05:46.449Z,31.07
2022-08-17T12:08:12.781Z,31.14
2022-08-17T12:10:38.990Z,31.20
2022-08-17T12:13:05.233Z,31.16
2022-08-17T12:15:31.453Z,31.08
2022-08-17T12:17:58.150Z,30.99
2022-08-17T12:20:24.537Z,30.93
2022-08-17T12:22:50.859Z,30.90
2022-08-17T12:25:17.255Z,30.88
2022-08-17T12:28:04.239Z,30.86
2022-08-17T12:30:29.751Z,30.88
2022-08-17T12:32:56.169Z,30.88
2022-08-17T12:35:22.513Z,30.91
2022-08-17T12:37:48.827Z,30.98
2022-08-17T12:40:15.147Z,31.02
2022-08-17T12:42:41.562Z,31.05
2022-08-17T12:45:07.812Z,31.02
2022-08-17T12:47:34.045Z,30.92
2022-08-17T12:50:03.186Z,30.85
2022-08-17T12:52:29.454Z,30.79
2022-08-17T12:54:55.710Z,30.71
2022-08-17T12:57:21.954Z,30.66
2022-08-17T12:59:48.199Z,30.64
2022-08-17T13:02:15.011Z,30.63
2022-08-17T13:04:41.254Z,30.55
2022-08-17T13:07:07.516Z,30.53
2022-08-17T13:09:40.472Z,30.60
2022-08-17T13:12:07.502Z,30.75
2022-08-17T13:14:34.238Z,30.94
2022-08-17T13:17:00.575Z,31.01
2022-08-17T13:19:39.829Z,31.12
2022-08-17T13:22:07.610Z,31.23
2022-08-17T13:24:38.282Z,31.41
2022-08-17T13:27:07.976Z,31.41
2022-08-17T13:29:34.724Z,31.39
2022-08-17T13:32:04.224Z,31.41
2022-08-17T13:34:31.334Z,31.43
2022-08-17T13:36:59.557Z,31.55
2022-08-17T13:39:26.137Z,31.68
2022-08-17T13:41:52.551Z,31.81
2022-08-17T13:44:18.780Z,32.13
2022-08-17T13:46:45.139Z,32.35
2022-08-17T13:49:18.642Z,32.43
2022-08-17T13:51:44.980Z,32.44
2022-08-17T13:54:11.323Z,32.34
2022-08-17T13:56:39.569Z,32.25
2022-08-17T13:59:06.056Z,32.41
2022-08-17T14:01:32.432Z,32.61
2022-08-17T14:03:58.751Z,32.79
2022-08-17T14:06:52.042Z,32.85
2022-08-17T14:09:11.281Z,32.97
2022-08-17T14:11:37.531Z,33.09
2022-08-17T14:14:03.800Z,33.21
2022-08-17T14:16:30.107Z,33.28
2022-08-17T14:18:57.486Z,33.21
2022-08-17T14:21:23.783Z,32.97
2022-08-17T14:23:54.381Z,32.78
2022-08-17T14:26:21.334Z,32.40
2022-08-17T14:28:49.457Z,32.19
2022-08-17T14:31:22.906Z,31.98
2022-08-17T14:33:49.178Z,31.76
2022-08-17T14:36:15.472Z,31.76
2022-08-17T14:38:41.724Z,31.91
2022-08-17T14:41:08.126Z,32.06
2022-08-17T14:43:34.403Z,32.15
2022-08-17T14:46:00.684Z,32.07
2022-08-17T14:48:26.956Z,31.98
2022-08-17T14:50:53.249Z,31.88
2022-08-17T14:53:19.619Z,31.83
2022-08-17T14:55:47.119Z,31.77
2022-08-17T14:58:14.943Z,31.75
2022-08-17T15:00:41.173Z,31.70
2022-08-17T15:03:07.411Z,31.62
2022-08-17T15:05:33.712Z,31.55
2022-08-17T15:08:00.285Z,31.51
2022-08-17T15:10:26.572Z,31.53
2022-08-17T15:12:52.841Z,31.60
2022-08-17T15:15:19.167Z,31.61
2022-08-17T15:17:46.128Z,31.54
2022-08-17T15:20:21.117Z,31.47
2022-08-17T15:22:47.372Z,31.41
2022-08-17T15:25:13.606Z,31.43
2022-08-17T15:27:39.871Z,31.49
2022-08-17T15:30:07.325Z,31.56
2022-08-17T15:32:33.780Z,31.61
2022-08-17T15:35:00.114Z,31.64
2022-08-17T15:37:26.384Z,31.69
2022-08-17T15:39:52.688Z,31.66
2022-08-17T15:42:18.960Z,31.66
2022-08-17T15:44:45.167Z,31.75
2022-08-17T15:47:11.417Z,31.91
2022-08-17T15:49:38.715Z,32.08
2022-08-17T15:52:04.942Z,32.30
2022-08-17T15:54:31.655Z,32.48
2022-08-17T15:57:01.019Z,32.60
2022-08-17T15:59:27.238Z,32.64
2022-08-17T16:03:15.105Z,32.65
2022-08-17T16:04:41.441Z,32.68
2022-08-17T16:07:10.478Z,32.78
2022-08-17T16:09:36.739Z,32.82
2022-08-17T16:12:02.993Z,32.75
2022-08-17T16:14:34.008Z,32.71
2022-08-17T16:17:01.450Z,32.57
2022-08-17T16:19:27.776Z,32.48
2022-08-17T16:21:54.023Z,32.33
2022-08-17T16:24:20.335Z,32.15
2022-08-17T16:26:46.625Z,32.02
2022-08-17T16:29:12.845Z,31.98
2022-08-17T16:31:39.171Z,32.04
2022-08-17T16:34:16.776Z,32.17
2022-08-17T16:36:54.658Z,32.28
2022-08-17T16:39:22.078Z,32.36
2022-08-17T16:41:48.645Z,32.36
2022-08-17T16:44:15.496Z,32.29
2022-08-17T16:46:45.983Z,32.16
2022-08-17T16:49:12.410Z,31.92
2022-08-17T16:51:55.866Z,31.73
2022-08-17T16:54:22.121Z,31.64
2022-08-17T16:56:48.363Z,31.57
2022-08-17T16:59:30.229Z,31.50
2022-08-17T17:01:58.040Z,31.42
2022-08-17T17:04:24.390Z,31.39
2022-08-17T17:06:50.758Z,31.40
2022-08-17T17:09:16.961Z,31.39
2022-08-17T17:11:43.230Z,31.39
2022-08-17T17:14:09.482Z,31.40
2022-08-17T17:16:35.840Z,31.38
2022-08-17T17:19:02.127Z,31.29
2022-08-17T17:21:28.561Z,31.22
2022-08-17T17:23:54.785Z,31.16
2022-08-17T17:26:21.076Z,31.09
2022-08-17T17:28:47.306Z,31.04
2022-08-17T17:31:13.549Z,31.03
2022-08-17T17:33:39.777Z,30.97
2022-08-17T17:36:06.079Z,30.91
2022-08-17T17:38:32.307Z,30.84
2022-08-17T17:41:02.496Z,30.73
2022-08-17T17:43:39.022Z,30.61
2022-08-17T17:46:28.693Z,30.52
2022-08-17T17:48:52.965Z,30.37
2022-08-17T17:52:05.285Z,30.26
2022-08-17T17:54:05.470Z,30.10
2022-08-17T17:56:44.157Z,29.98
2022-08-17T17:59:12.614Z,29.85
2022-08-17T18:01:39.334Z,29.70
2022-08-17T18:04:17.017Z,29.57
2022-08-17T18:06:47.049Z,29.46
2022-08-17T18:09:15.477Z,29.33
2022-08-17T18:11:45.749Z,29.23
2022-08-17T18:14:17.565Z,29.13
2022-08-17T18:16:43.919Z,29.04
2022-08-17T18:19:11.497Z,28.93
2022-08-17T18:21:39.119Z,28.81
2022-08-17T18:24:06.578Z,28.66
2022-08-17T18:26:34.443Z,28.50
2022-08-17T18:29:00.980Z,28.38
2022-08-17T18:31:27.377Z,28.27
2022-08-17T18:33:53.607Z,28.14
2022-08-17T18:36:19.881Z,28.06
2022-08-17T18:38:46.595Z,27.96
2022-08-17T18:41:13.028Z,27.88
2022-08-17T18:43:52.770Z,27.79
2022-08-17T18:46:28.298Z,27.71
2022-08-17T18:48:55.972Z,27.68
2022-08-17T18:51:39.701Z,27.60
2022-08-17T18:54:08.044Z,27.54
2022-08-17T18:56:34.539Z,27.45
2022-08-17T18:59:00.811Z,27.39
2022-08-17T19:01:41.941Z,27.34
2022-08-17T19:04:13.600Z,27.28
2022-08-17T19:06:39.920Z,27.23
2022-08-17T19:09:06.356Z,27.20
2022-08-17T19:11:32.611Z,27.19
2022-08-17T19:13:58.918Z,27.14
2022-08-17T19:16:25.162Z,27.13
2022-08-17T19:18:51.435Z,27.08
2022-08-17T19:21:18.067Z,27.05
2022-08-17T19:23:53.706Z,26.99
2022-08-17T19:26:55.381Z,26.89
2022-08-17T19:29:06.872Z,26.75
2022-08-17T19:31:33.151Z,26.63
2022-08-17T19:33:59.484Z,26.52
2022-08-17T19:36:25.848Z,26.44
2022-08-17T19:38:52.101Z,26.33
2022-08-17T19:41:18.374Z,26.26
2022-08-17T19:43:44.863Z,26.20
2022-08-17T19:46:11.173Z,26.10
2022-08-17T19:48:37.403Z,26.04
2022-08-17T19:51:03.658Z,25.95
2022-08-17T19:53:42.000Z,25.86
2022-08-17T19:56:16.189Z,25.76
2022-08-17T19:58:42.424Z,25.73
2022-08-17T20:01:11.074Z,25.68
2022-08-17T20:03:37.385Z,25.62
2022-08-17T20:06:18.832Z,25.59
2022-08-17T20:08:45.153Z,25.50
2022-08-17T20:11:11.410Z,25.45
2022-08-17T20:13:37.762Z,25.41
2022-08-17T20:16:04.018Z,25.36
2022-08-17T20:18:30.259Z,25.33
2022-08-17T20:20:56.586Z,25.29
2022-08-17T20:23:22.815Z,25.25
2022-08-17T20:25:49.088Z,25.22
2022-08-17T20:28:15.300Z,25.17
2022-08-17T20:30:42.315Z,25.15
2022-08-17T20:33:08.525Z,25.13
2022-08-17T20:35:39.435Z,25.07
2022-08-17T20:38:05.631Z,25.03
2022-08-17T20:40:31.887Z,24.99
2022-08-17T20:42:58.107Z,24.96
2022-08-17T20:45:24.449Z,24.94
2022-08-17T20:48:15.994Z,24.89
2022-08-17T20:50:36.967Z,24.86
2022-08-17T20:53:03.213Z,24.86
2022-08-17T20:55:29.457Z,24.83
2022-08-17T20:57:55.683Z,24.80
2022-08-17T21:00:21.911Z,24.76
2022-08-17T21:02:48.140Z,24.75
2022-08-17T21:05:14.397Z,24.70
2022-08-17T21:07:42.710Z,24.67
2022-08-17T21:10:09.998Z,24.65
2022-08-17T21:12:36.392Z,24.63
2022-08-17T21:15:02.657Z,24.61
2022-08-17T21:17:28.957Z,24.58
2022-08-17T21:20:10.447Z,24.51
2022-08-17T21:22:37.507Z,24.44
2022-08-17T21:25:03.777Z,24.41
2022-08-17T21:27:30.067Z,24.39
2022-08-17T21:29:56.516Z,24.35
2022-08-17T21:32:24.423Z,24.32
2022-08-17T21:34:51.604Z,24.29
2022-08-17T21:37:17.871Z,24.27
2022-08-17T21:39:44.137Z,24.26
2022-08-17T21:42:10.411Z,24.26
2022-08-17T21:44:36.713Z,24.24
2022-08-17T21:47:02.979Z,24.23
2022-08-17T21:49:29.221Z,24.21
2022-08-17T21:52:04.004Z,24.19
2022-08-17T21:54:30.263Z,24.17
2022-08-17T21:56:56.554Z,24.15
2022-08-17T21:59:22.920Z,24.11
2022-08-17T22:01:50.707Z,24.08
2022-08-17T22:04:17.017Z,24.07
2022-08-17T22:06:43.305Z,24.04
2022-08-17T22:09:23.726Z,23.99
2022-08-17T22:11:49.979Z,23.95
2022-08-17T22:14:16.239Z,23.91
2022-08-17T22:16:43.748Z,23.90
2022-08-17T22:19:10.020Z,23.90
2022-08-17T22:21:36.255Z,23.86
2022-08-17T22:24:02.499Z,23.83
2022-08-17T22:26:28.724Z,23.82
2022-08-17T22:28:54.960Z,23.79
2022-08-17T22:31:21.215Z,23.79
2022-08-17T22:33:47.579Z,23.76
2022-08-17T22:36:13.808Z,23.75
2022-08-17T22:38:40.587Z,23.73
2022-08-17T22:41:06.925Z,23.74
2022-08-17T22:43:34.976Z,23.74
2022-08-17T22:46:01.306Z,23.70
2022-08-17T22:48:27.708Z,23.68
2022-08-17T22:50:54.071Z,23.65
2022-08-17T22:53:20.319Z,23.61
2022-08-17T22:55:46.602Z,23.57
2022-08-17T22:58:12.854Z,23.53
2022-08-17T23:00:39.121Z,23.50
2022-08-17T23:03:05.413Z,23.48
2022-08-17T23:05:31.717Z,23.45
2022-08-17T23:07:57.957Z,23.43
2022-08-17T23:10:24.209Z,23.41
2022-08-17T23:12:50.447Z,23.38
2022-08-17T23:15:16.670Z,23.35
2022-08-17T23:17:42.890Z,23.33
2022-08-17T23:20:11.575Z,23.32
2022-08-17T23:22:37.781Z,23.29
2022-08-17T23:25:18.891Z,23.28
2022-08-17T23:27:46.854Z,23.27
2022-08-17T23:30:13.158Z,23.23
2022-08-17T23:32:39.396Z,23.20
2022-08-17T23:35:19.735Z,23.15
2022-08-17T23:38:05.634Z,23.12
2022-08-17T23:40:31.918Z,23.09
2022-08-17T23:42:58.220Z,23.07
2022-08-17T23:45:24.882Z,23.05
2022-08-17T23:47:51.423Z,23.00
2022-08-17T23:50:17.879Z,22.99
2022-08-17T23:52:44.821Z,22.98
2022-08-17T23:55:11.082Z,22.96
2022-08-17T23:57:37.309Z,22.92
